Sand Key, FL current weather conditions

sailwx.info

Wind from 080 at 10 knots gusting 14

Air temperature 29.9° C

Last reported at 2014-Aug-23 02:50 UTC.
Time now 2014-Aug-23 03:37 UTC

Location: N 24°28' W 081°53'.
View on Google Maps.

See reports from other nearby stations

  
Tides and Currents Weather Stations Pressure Air Temp Water Temp Dewpoint Dewpoint Depression Visibility Wind Speed Wind Dir Waves Ship Positions
date/time (UTC)wind fromknots sea level pressurealtimeterstation pressurevisibilityair tempwater tempwave heightnotes
2014-Aug-23 02:50 080 10 gusting 14 29.9
2014-Aug-23 01:50 080 12 gusting 15 29.8
2014-Aug-23 00:50 090 10 gusting 12 29.8
2014-Aug-22 22:50 110 8 gusting 10 30.1
2014-Aug-22 21:50 090 8 gusting 10 30.2
2014-Aug-22 20:50 060 4 gusting 6 29.9
2014-Aug-22 19:50 020 8 gusting 10 29.4
2014-Aug-22 18:50 010 9 gusting 11 28.7
2014-Aug-22 17:50 070 5 gusting 8 29.7
2014-Aug-22 16:50 100 7 gusting 9 29.6
2014-Aug-22 15:50 110 8 gusting 10 29.6
2014-Aug-22 14:50 130 11 gusting 12 29.3
2014-Aug-22 13:50 120 8 gusting 10 29.6
2014-Aug-22 10:50 100 11 gusting 13 29.2
2014-Aug-22 09:50 070 12 gusting 13 29.3
2014-Aug-22 07:50 080 11 gusting 14 29.5
2014-Aug-22 06:50 090 11 gusting 14 29.6
2014-Aug-22 05:50 100 9 gusting 10 29.6
2014-Aug-22 04:50 120 9 gusting 12 29.5
2014-Aug-22 03:50 100 10 gusting 11 29.8
2014-Aug-22 02:50 090 8 gusting 10 29.9
2014-Aug-22 01:50 090 8 gusting 10 29.8
2014-Aug-22 00:50 100 9 gusting 10 29.9
2014-Aug-21 22:50 090 10 gusting 12 29.8
2014-Aug-21 21:50 090 10 gusting 12 29.8
2014-Aug-21 20:50 100 9 gusting 12 29.7
2014-Aug-21 19:50 120 9 gusting 12 29.9
2014-Aug-21 18:50 120 10 gusting 12 29.9
2014-Aug-21 17:50 110 10 gusting 12 29.9
2014-Aug-21 16:50 110 12 gusting 13 30.0
2014-Aug-21 15:50 110 9 gusting 11 30.0
2014-Aug-21 14:50 120 11 gusting 12 29.4
2014-Aug-21 13:50 120 7 gusting 12 29.4
2014-Aug-21 12:50 100 9 gusting 11 29.8
2014-Aug-21 11:50 100 11 gusting 13 29.6
2014-Aug-21 10:50 090 10 gusting 13 29.6
2014-Aug-21 09:50 080 10 gusting 12 29.3
2014-Aug-21 08:50 070 9 gusting 10 29.1
2014-Aug-21 07:50 070 10 gusting 12 28.9
2014-Aug-21 06:50 070 8 gusting 10 29.2
2014-Aug-21 05:50 110 4 gusting 5 28.2
2014-Aug-21 04:50 080 9 gusting 11 29.8
2014-Aug-21 03:50 080 9 gusting 10 29.6